• Join FlightAware (Why Join?)
  • Login
  • US Flag 
10:42AM EDT


 

Airport Tracker/Info


-or-


 

Live Flight TrackerFlight Track Log ✈ AWE2690 ✈ 02-Mar-2014 ✈ KMYR - KCLT

Flight Track Log - Related Links

Times and Time Zones

All times are in EST time to prevent confusion due to time zone crossing. See the AWE2690 flight status page for this flight to view local times or setup timezone preferences in your user account.

Time Position Orientation Groundspeed Altitude Reporting Facility
EST Latitude Longitude Course Direction KTS MPH feet Rate Location/Type
11:33AM 33.6011 -79.0025 313° West 233 268 4,400  Level Jacksonville Center
11:34AM 33.6325 -79.0686 300° West 272 313 7,100 2,460 Climbing Jacksonville Center
11:35AM 33.9205 -79.2378 313° West  Level Estimated
11:35AM 33.6797 -79.1139 321° Northwest 285 328 9,400  Level Jacksonville Center
11:36AM 33.9805 -79.3154 313° West  Level Estimated
11:36AM 33.7572 -79.1931 320° Northwest 295 339 12,100  Level Jacksonville Center
11:37AM 34.0406 -79.3932 313° West  Level Estimated
11:37AM 33.8281 -79.2600 322° Northwest 305 351 14,600  Level Jacksonville Center
11:38AM 33.7361 -79.0005 313° West  Level Estimated
11:38AM 33.9008 -79.3322 321° Northwest 324 373 16,000  Level Jacksonville Center
11:39AM 33.9639 -79.4172 312° West 330 380 17,400 960 Climbing Jacksonville Center
11:40AM 33.9956 -79.5111 292° West 330 380 18,000 300 Climbing Jacksonville Center
11:41AM 34.0217 -79.6253 285° West 341 392 18,000  Level Jacksonville Center
11:42AM 34.0681 -79.7289 298° West 349 402 18,000  Level Jacksonville Center
11:43AM 34.1492 -79.8086 321° Northwest 354 407 18,000  Level Jacksonville Center
11:44AM 34.2325 -79.8861 322° Northwest 359 413 18,000 -1,140 Level Jacksonville Center
11:45AM 34.3094 -79.9614 321° Northwest 365 420 15,800 -2,100 Descending Jacksonville Center
11:46AM 34.3819 -80.0294 322° Northwest 359 413 13,900 -1,800 Descending Jacksonville Center
11:47AM 34.4522 -80.0975 321° Northwest 344 396 12,300 -1,440 Descending Jacksonville Center
11:48AM 34.5289 -80.1758 320° Northwest 339 390 11,100 -480 Descending Jacksonville Center
11:50AM 34.6878 -80.3303 321° Northwest 340 391 11,000 -60 Descending Atlanta Center
11:51AM 34.7528 -80.4058 316° Northwest 274 315 11,000  Level Atlanta Center
11:52AM 34.8092 -80.4769 314° West 287 330 11,000  Level Atlanta Center
11:53AM 34.8694 -80.5503 315° West 292 336 11,000  Level Atlanta Center
11:54AM 34.9192 -80.6114 315° West 288 331 11,000 -780 Level Atlanta Center
11:55AM 34.9797 -80.6875 314° West 275 316 9,500 -960 Descending Atlanta Center
11:56AM 35.0317 -80.7564 313° West 270 311 9,000 -300 Descending Atlanta Center
11:57AM 35.0875 -80.8075 323° Northwest 256 295 9,000 -360 Level Atlanta Center
11:58AM 35.1500 -80.8078 360° North 247 284 8,400 -1,440 Descending Atlanta Center
11:59AM 35.2231 -80.8100 359° North 239 275 6,300 -1,140 Descending Atlanta Center
12:00PM 35.2900 -80.8150 357° North 222 255 6,000 -180 Descending Atlanta Center
12:02PM 35.3608 -80.8172 359° North 224 258 6,000 -300 Level Atlanta Center
12:03PM 35.4339 -80.8194 359° North 229 264 5,400 -840 Descending Atlanta Center
12:04PM 35.4561 -80.8619 303° West 180 207 4,300 -720 Descending Atlanta Center
12:05PM 35.4239 -80.9067 229° Southwest 159 183 4,000 -240 Descending Atlanta Center
12:06PM 35.3825 -80.9258 201° Southwest 162 186 3,900 -540 Descending Atlanta Center
12:07PM 35.3392 -80.9403 195° South 159 183 3,000 -840 Descending Atlanta Center
12:08PM 35.2997 -80.9469 188° South 161 185 2,300 -780 Descending Atlanta Center
12:09PM 35.2578 -80.9433 176° South 138 159 1,500 -840 Descending Atlanta Center